createdAt,value
2023-07-19T00:02:24.729Z,19.44
2023-07-19T00:04:52.591Z,19.44
2023-07-19T00:07:20.267Z,19.47
2023-07-19T00:09:47.873Z,19.44
2023-07-19T00:12:15.843Z,19.51
2023-07-19T00:14:43.550Z,19.47
2023-07-19T00:17:11.223Z,19.54
2023-07-19T00:19:39.032Z,19.62
2023-07-19T00:22:07.051Z,19.58
2023-07-19T00:24:34.972Z,19.59
2023-07-19T00:27:02.696Z,19.64
2023-07-19T00:29:30.420Z,19.59
2023-07-19T00:31:58.309Z,19.65
2023-07-19T00:34:25.988Z,19.60
2023-07-19T00:36:53.714Z,19.58
2023-07-19T00:39:21.379Z,19.56
2023-07-19T00:41:49.004Z,19.59
2023-07-19T00:44:16.725Z,19.58
2023-07-19T00:46:45.391Z,19.60
2023-07-19T00:49:13.239Z,19.53
2023-07-19T00:51:42.016Z,19.51
2023-07-19T00:54:10.813Z,19.33
2023-07-19T00:56:42.019Z,19.07
2023-07-19T00:59:15.863Z,18.99
2023-07-19T01:01:45.782Z,18.65
2023-07-19T01:04:14.096Z,18.53
2023-07-19T01:06:43.530Z,18.35
2023-07-19T01:09:13.394Z,18.23
2023-07-19T01:11:44.121Z,18.23
2023-07-19T01:14:11.860Z,17.95
2023-07-19T01:16:40.191Z,17.88
2023-07-19T01:19:10.630Z,17.85
2023-07-19T01:21:41.320Z,18.23
2023-07-19T01:24:09.301Z,18.06
2023-07-19T01:26:37.155Z,17.94
2023-07-19T01:29:04.828Z,17.94
2023-07-19T01:31:32.495Z,18.05
2023-07-19T01:34:00.196Z,18.11
2023-07-19T01:36:28.954Z,18.15
2023-07-19T01:38:56.739Z,18.16
2023-07-19T01:41:26.187Z,18.28
2023-07-19T01:43:54.994Z,18.33
2023-07-19T01:46:22.647Z,18.40
2023-07-19T01:48:50.314Z,18.41
2023-07-19T01:51:18.234Z,18.45
2023-07-19T01:53:45.968Z,18.34
2023-07-19T01:56:13.660Z,18.40
2023-07-19T01:58:42.013Z,18.27
2023-07-19T02:01:09.735Z,18.34
2023-07-19T02:03:37.382Z,18.35
2023-07-19T02:06:05.103Z,18.41
2023-07-19T02:08:32.751Z,18.56
2023-07-19T02:11:01.777Z,18.82
2023-07-19T02:13:29.503Z,19.07
2023-07-19T02:15:57.321Z,19.24
2023-07-19T02:18:25.181Z,19.36
2023-07-19T02:20:55.528Z,19.25
2023-07-19T02:23:24.932Z,19.37
2023-07-19T02:25:52.749Z,19.38
2023-07-19T02:28:21.947Z,19.57
2023-07-19T02:30:50.081Z,19.72
2023-07-19T02:33:18.350Z,19.80
2023-07-19T02:35:46.182Z,19.87
2023-07-19T02:38:13.729Z,19.77
2023-07-19T02:40:41.988Z,19.75
2023-07-19T02:43:12.096Z,19.63
2023-07-19T02:45:40.335Z,19.68
2023-07-19T02:48:08.068Z,19.65
2023-07-19T02:50:36.737Z,19.75
2023-07-19T02:53:04.325Z,19.78
2023-07-19T02:55:31.954Z,19.83
2023-07-19T02:57:59.774Z,19.99
2023-07-19T03:00:28.125Z,20.08
2023-07-19T03:02:57.249Z,20.27
2023-07-19T03:05:24.996Z,20.43
2023-07-19T03:07:53.463Z,20.41
2023-07-19T03:10:21.172Z,20.46
2023-07-19T03:12:49.178Z,20.93
2023-07-19T03:15:16.847Z,22.14
2023-07-19T03:17:44.549Z,22.75
2023-07-19T03:20:13.527Z,23.45
2023-07-19T03:22:41.401Z,24.55
2023-07-19T03:25:09.244Z,25.69
2023-07-19T03:27:37.020Z,26.20
2023-07-19T03:30:06.632Z,26.72
2023-07-19T03:32:35.147Z,27.38
2023-07-19T03:35:02.807Z,27.65
2023-07-19T03:37:33.093Z,28.03
2023-07-19T03:40:00.901Z,28.61
2023-07-19T03:42:33.059Z,28.82
2023-07-19T03:45:00.833Z,28.94
2023-07-19T03:47:31.789Z,29.00
2023-07-19T03:50:00.917Z,29.07
2023-07-19T03:52:31.357Z,29.25
2023-07-19T03:54:59.893Z,29.79
2023-07-19T03:57:34.093Z,30.40
2023-07-19T04:00:02.775Z,30.24
2023-07-19T04:02:33.509Z,30.10
2023-07-19T04:05:01.264Z,29.76
2023-07-19T04:07:31.423Z,29.78
2023-07-19T04:09:59.135Z,29.73
2023-07-19T04:12:26.988Z,30.38
2023-07-19T04:14:54.804Z,31.01
2023-07-19T04:17:26.456Z,31.54
2023-07-19T04:19:54.163Z,32.09
2023-07-19T04:22:22.567Z,32.61
2023-07-19T04:24:51.750Z,32.84
2023-07-19T04:27:19.632Z,32.89
2023-07-19T04:29:47.371Z,33.19
2023-07-19T04:32:15.448Z,33.45
2023-07-19T04:34:43.163Z,33.57
2023-07-19T04:37:12.530Z,33.83
2023-07-19T04:39:41.575Z,34.33
2023-07-19T04:42:10.392Z,34.65
2023-07-19T04:44:39.614Z,34.80
2023-07-19T04:47:08.544Z,34.93
2023-07-19T04:49:37.564Z,35.39
2023-07-19T04:52:06.059Z,35.29
2023-07-19T04:54:34.477Z,35.41
2023-07-19T04:57:02.441Z,35.41
2023-07-19T04:59:30.448Z,35.59
2023-07-19T05:01:58.885Z,35.83
2023-07-19T05:04:27.128Z,36.05
2023-07-19T05:06:54.872Z,36.50
2023-07-19T05:09:23.762Z,36.30
2023-07-19T05:11:51.620Z,35.70
2023-07-19T05:14:19.438Z,35.35
2023-07-19T05:16:47.102Z,34.77
2023-07-19T05:19:14.746Z,34.88
2023-07-19T05:21:42.475Z,35.22
2023-07-19T05:24:10.734Z,35.60
2023-07-19T05:26:40.802Z,35.85
2023-07-19T05:29:09.470Z,35.90
2023-07-19T05:31:37.304Z,35.54
2023-07-19T05:34:05.027Z,35.63
2023-07-19T05:36:32.632Z,36.05
2023-07-19T05:39:01.210Z,36.05
2023-07-19T05:41:29.134Z,36.35
2023-07-19T05:44:10.309Z,35.90
2023-07-19T05:46:40.031Z,35.86
2023-07-19T05:49:07.643Z,35.73
2023-07-19T05:51:35.440Z,36.17
2023-07-19T05:54:05.403Z,36.66
2023-07-19T05:56:33.182Z,36.25
2023-07-19T05:59:02.089Z,35.22
2023-07-19T06:01:33.361Z,34.99
2023-07-19T06:04:02.492Z,35.04
2023-07-19T06:06:30.351Z,34.48
2023-07-19T06:08:58.172Z,33.57
2023-07-19T06:11:25.786Z,33.08
2023-07-19T06:13:55.185Z,33.00
2023-07-19T06:16:22.828Z,33.20
2023-07-19T06:18:50.665Z,33.23
2023-07-19T06:21:19.188Z,33.37
2023-07-19T06:23:47.158Z,33.35
2023-07-19T06:26:15.616Z,33.64
2023-07-19T06:28:43.456Z,34.17
2023-07-19T06:31:11.188Z,34.19
2023-07-19T06:33:39.076Z,34.18
2023-07-19T06:36:06.988Z,34.45
2023-07-19T06:38:38.501Z,34.37
2023-07-19T06:41:06.873Z,34.99
2023-07-19T06:43:34.873Z,35.65
2023-07-19T06:46:02.797Z,36.18
2023-07-19T06:48:30.423Z,36.53
2023-07-19T06:50:58.740Z,36.57
2023-07-19T06:53:26.429Z,36.62
2023-07-19T06:55:59.739Z,36.83
2023-07-19T06:58:28.033Z,36.90
2023-07-19T07:00:58.128Z,36.87
2023-07-19T07:03:26.800Z,36.91
2023-07-19T07:05:54.573Z,36.19
2023-07-19T07:08:24.557Z,36.06
2023-07-19T07:10:52.330Z,35.21
2023-07-19T07:13:19.965Z,34.26
2023-07-19T07:15:48.117Z,33.80
2023-07-19T07:18:15.951Z,33.53
2023-07-19T07:20:44.212Z,33.66
2023-07-19T07:23:11.899Z,33.51
2023-07-19T07:25:39.993Z,33.83
2023-07-19T07:28:07.741Z,34.04
2023-07-19T07:30:38.608Z,33.16
2023-07-19T07:33:06.412Z,32.60
2023-07-19T07:35:35.645Z,31.66
2023-07-19T07:38:03.546Z,31.86
2023-07-19T07:40:31.382Z,31.30
2023-07-19T07:42:59.254Z,30.99
2023-07-19T07:45:26.984Z,30.58
2023-07-19T07:47:54.734Z,30.57
2023-07-19T07:50:24.543Z,30.19
2023-07-19T07:53:02.448Z,30.20
2023-07-19T07:55:37.589Z,30.29
2023-07-19T07:58:05.647Z,30.23
2023-07-19T08:00:33.548Z,29.82
2023-07-19T08:03:01.645Z,29.71
2023-07-19T08:05:29.661Z,29.68
2023-07-19T08:07:59.212Z,29.80
2023-07-19T08:10:29.305Z,29.34
2023-07-19T08:12:59.140Z,29.03
2023-07-19T08:15:26.915Z,28.81
2023-07-19T08:17:54.902Z,28.45
2023-07-19T08:20:23.635Z,27.94
2023-07-19T08:22:51.436Z,27.71
2023-07-19T08:25:27.798Z,27.71
2023-07-19T08:27:56.438Z,27.31
2023-07-19T08:30:25.496Z,27.19
2023-07-19T08:32:54.729Z,26.96
2023-07-19T08:35:22.527Z,26.70
2023-07-19T08:37:50.348Z,26.58
2023-07-19T08:40:19.435Z,26.60
2023-07-19T08:42:47.135Z,26.52
2023-07-19T08:45:15.788Z,26.62
2023-07-19T08:47:45.101Z,26.76
2023-07-19T08:50:13.312Z,26.83
2023-07-19T08:52:41.110Z,26.59
2023-07-19T08:55:09.641Z,26.59
2023-07-19T08:57:44.243Z,26.70
2023-07-19T09:00:12.475Z,26.73
2023-07-19T09:02:40.195Z,26.66
2023-07-19T09:05:08.857Z,26.69
2023-07-19T09:07:38.259Z,26.70
2023-07-19T09:10:07.783Z,26.41
2023-07-19T09:12:46.083Z,26.33
2023-07-19T09:15:15.205Z,26.24
2023-07-19T09:17:43.764Z,26.28
2023-07-19T09:20:12.860Z,26.20
2023-07-19T09:22:41.386Z,26.22
2023-07-19T09:25:12.088Z,26.19
2023-07-19T09:27:44.068Z,26.18
2023-07-19T09:30:13.851Z,26.07
2023-07-19T09:32:42.389Z,26.03
2023-07-19T09:35:10.820Z,26.03
2023-07-19T09:37:38.962Z,26.20
2023-07-19T09:40:07.252Z,26.27
2023-07-19T09:42:39.422Z,26.29
2023-07-19T09:45:07.953Z,26.23
2023-07-19T09:47:37.076Z,26.64
2023-07-19T09:50:07.950Z,26.96
2023-07-19T09:52:39.817Z,27.39
2023-07-19T09:55:08.338Z,27.31
2023-07-19T09:57:41.674Z,26.75
2023-07-19T10:00:11.624Z,26.70
2023-07-19T10:02:40.456Z,26.73
2023-07-19T10:05:10.990Z,27.05
2023-07-19T10:07:49.951Z,26.88
2023-07-19T10:10:21.646Z,26.25
2023-07-19T10:12:51.727Z,26.02
2023-07-19T10:15:23.256Z,25.98
2023-07-19T10:17:56.919Z,26.53
2023-07-19T10:20:29.288Z,26.91
2023-07-19T10:22:59.635Z,26.55
2023-07-19T10:25:36.538Z,26.20
2023-07-19T10:28:07.644Z,25.87
2023-07-19T10:31:10.047Z,25.52
2023-07-19T10:33:45.610Z,25.37
2023-07-19T10:36:15.619Z,25.48
2023-07-19T10:38:43.410Z,25.61
2023-07-19T10:41:12.808Z,25.74
2023-07-19T10:46:11.766Z,25.75
2023-07-19T10:48:42.212Z,25.85
2023-07-19T10:51:12.072Z,25.97
2023-07-19T10:54:00.623Z,25.92
2023-07-19T10:56:30.010Z,25.86
2023-07-19T10:59:01.001Z,25.91
2023-07-19T11:01:32.008Z,26.26
2023-07-19T11:04:06.398Z,26.41
2023-07-19T11:06:56.051Z,26.18
2023-07-19T11:09:24.613Z,26.15
2023-07-19T11:11:53.052Z,26.03
2023-07-19T11:14:34.310Z,26.00
2023-07-19T11:17:02.347Z,26.04
2023-07-19T11:19:40.435Z,26.24
2023-07-19T11:22:09.781Z,26.46
2023-07-19T11:24:39.924Z,26.91
2023-07-19T11:27:09.665Z,26.87
2023-07-19T11:29:37.350Z,26.92
2023-07-19T11:32:23.995Z,27.38
2023-07-19T11:34:57.799Z,27.19
2023-07-19T11:37:31.553Z,26.96
2023-07-19T11:40:07.313Z,26.95
2023-07-19T11:42:48.612Z,26.93
2023-07-19T11:45:18.903Z,26.64
2023-07-19T11:47:49.760Z,25.99
2023-07-19T11:50:17.727Z,25.81
2023-07-19T11:52:56.244Z,26.06
2023-07-19T11:55:26.146Z,25.89
2023-07-19T11:57:55.410Z,25.82
2023-07-19T12:00:25.174Z,25.80
2023-07-19T12:02:53.675Z,25.29
2023-07-19T12:05:24.119Z,24.69
2023-07-19T12:07:56.266Z,24.12
2023-07-19T12:10:25.216Z,23.73
2023-07-19T12:12:52.920Z,23.57
2023-07-19T12:15:20.537Z,23.50
2023-07-19T12:17:48.547Z,23.35
2023-07-19T12:20:16.221Z,23.39
2023-07-19T12:22:47.101Z,23.52
2023-07-19T12:25:15.561Z,23.52
2023-07-19T12:27:43.690Z,23.63
2023-07-19T12:30:12.254Z,23.57
2023-07-19T12:32:40.421Z,23.60
2023-07-19T12:35:09.235Z,23.73
2023-07-19T12:37:37.088Z,23.82
2023-07-19T12:40:10.696Z,23.92
2023-07-19T12:42:38.638Z,23.88
2023-07-19T12:45:11.214Z,23.80
2023-07-19T12:47:39.809Z,23.89
2023-07-19T12:50:08.104Z,23.95
2023-07-19T12:52:49.964Z,23.95
2023-07-19T12:55:19.809Z,24.08
2023-07-19T12:57:48.873Z,24.20
2023-07-19T13:00:17.003Z,24.40
2023-07-19T13:02:48.039Z,24.52
2023-07-19T13:05:16.291Z,24.48
2023-07-19T13:07:43.888Z,24.43
2023-07-19T13:10:11.949Z,24.42
2023-07-19T13:12:39.724Z,24.42
2023-07-19T13:15:07.873Z,24.37
2023-07-19T13:17:36.223Z,24.39
2023-07-19T13:20:09.701Z,24.37
2023-07-19T13:22:38.316Z,24.33
2023-07-19T13:25:07.336Z,24.32
2023-07-19T13:27:36.900Z,24.34
2023-07-19T13:30:09.028Z,24.36
2023-07-19T13:32:37.245Z,24.33
2023-07-19T13:35:05.402Z,24.33
2023-07-19T13:40:11.950Z,24.36
2023-07-19T13:42:39.927Z,24.43
2023-07-19T13:45:08.195Z,24.40
2023-07-19T13:47:35.993Z,24.38
2023-07-19T13:50:04.158Z,24.44
2023-07-19T13:52:31.998Z,24.38
2023-07-19T13:54:59.604Z,24.45
2023-07-19T13:57:30.203Z,24.45
2023-07-19T13:59:58.113Z,24.27
2023-07-19T14:02:27.530Z,24.21
2023-07-19T14:04:56.313Z,24.28
2023-07-19T14:07:24.661Z,24.29
2023-07-19T14:09:52.534Z,24.29
2023-07-19T14:12:20.451Z,24.31
2023-07-19T14:14:48.067Z,24.21
2023-07-19T14:17:18.805Z,24.07
2023-07-19T14:19:49.936Z,23.97
2023-07-19T14:22:17.690Z,23.93
2023-07-19T14:24:45.385Z,23.93
2023-07-19T14:27:13.833Z,23.94
2023-07-19T14:29:43.399Z,23.97
2023-07-19T14:32:12.161Z,24.00
2023-07-19T14:37:16.701Z,24.11
2023-07-19T14:39:45.127Z,24.07
2023-07-19T14:42:13.416Z,24.15
2023-07-19T14:44:41.521Z,24.14
2023-07-19T14:47:09.299Z,24.14
2023-07-19T14:49:37.885Z,24.08
2023-07-19T14:52:05.723Z,24.02
2023-07-19T14:54:33.511Z,23.96
2023-07-19T14:57:05.811Z,23.94
2023-07-19T14:59:34.074Z,24.07
2023-07-19T15:02:02.083Z,23.95
2023-07-19T15:04:30.235Z,23.84
2023-07-19T15:06:58.038Z,23.83
2023-07-19T15:09:26.023Z,23.83
2023-07-19T15:11:53.965Z,23.74
2023-07-19T15:14:21.889Z,23.79
2023-07-19T15:16:49.741Z,23.80
2023-07-19T15:19:17.772Z,23.74
2023-07-19T15:21:46.380Z,23.80
2023-07-19T15:24:14.116Z,23.72
2023-07-19T15:26:42.437Z,23.64
2023-07-19T15:29:10.327Z,23.64
2023-07-19T15:31:39.643Z,23.61
2023-07-19T15:34:07.398Z,23.50
2023-07-19T15:36:35.059Z,23.51
2023-07-19T15:39:02.741Z,23.45
2023-07-19T15:41:30.508Z,23.31
2023-07-19T15:43:58.058Z,23.20
2023-07-19T15:46:26.016Z,23.16
2023-07-19T15:48:53.619Z,23.18
2023-07-19T15:51:21.546Z,23.04
2023-07-19T15:53:49.626Z,23.00
2023-07-19T15:56:17.255Z,22.99
2023-07-19T15:58:44.989Z,22.98
2023-07-19T16:01:14.586Z,22.99
2023-07-19T16:03:45.072Z,23.01
2023-07-19T16:06:13.048Z,23.04
2023-07-19T16:08:42.328Z,23.01
2023-07-19T16:11:10.585Z,22.97
2023-07-19T16:13:38.279Z,22.98
2023-07-19T16:16:06.349Z,22.93
2023-07-19T16:18:35.566Z,22.93
2023-07-19T16:21:03.871Z,22.85
2023-07-19T16:23:31.576Z,22.83
2023-07-19T16:25:59.202Z,22.76
2023-07-19T16:28:26.830Z,22.65
2023-07-19T16:30:54.955Z,22.73
2023-07-19T16:33:22.887Z,22.68
2023-07-19T16:35:50.598Z,22.54
2023-07-19T16:38:18.535Z,22.38
2023-07-19T16:40:46.315Z,22.23
2023-07-19T16:43:13.863Z,21.99
2023-07-19T16:45:41.529Z,22.00
2023-07-19T16:48:09.137Z,21.88
2023-07-19T16:50:37.364Z,21.90
2023-07-19T16:53:16.382Z,22.05
2023-07-19T16:58:13.188Z,21.79
2023-07-19T17:00:41.997Z,21.63
2023-07-19T17:03:09.965Z,21.60
2023-07-19T17:05:39.325Z,21.58
2023-07-19T17:08:07.610Z,21.55
2023-07-19T17:10:36.375Z,21.48
2023-07-19T17:13:05.411Z,21.51
2023-07-19T17:15:36.417Z,21.43
2023-07-19T17:18:06.733Z,21.48
2023-07-19T17:20:35.211Z,21.45
2023-07-19T17:23:03.817Z,21.43
2023-07-19T17:25:31.778Z,21.38
2023-07-19T17:27:59.627Z,21.41
2023-07-19T17:30:27.574Z,21.41
2023-07-19T17:32:55.414Z,21.41
2023-07-19T17:35:23.106Z,21.36
2023-07-19T17:37:50.719Z,21.30
2023-07-19T17:40:18.312Z,21.31
2023-07-19T17:42:45.893Z,21.33
2023-07-19T17:45:13.721Z,21.21
2023-07-19T17:47:41.499Z,21.10
2023-07-19T17:50:10.293Z,21.14
2023-07-19T17:52:39.434Z,21.19
2023-07-19T17:55:07.473Z,21.11
2023-07-19T17:57:35.087Z,21.15
2023-07-19T18:00:04.974Z,20.95
2023-07-19T18:02:36.210Z,21.44
2023-07-19T18:05:03.992Z,20.96
2023-07-19T18:07:32.681Z,20.80
2023-07-19T18:10:00.366Z,20.68
2023-07-19T18:12:27.942Z,20.68
2023-07-19T18:14:55.654Z,20.53
2023-07-19T18:17:23.252Z,20.41
2023-07-19T18:19:50.960Z,20.32
2023-07-19T18:22:18.591Z,20.37
2023-07-19T18:24:46.677Z,20.32
2023-07-19T18:27:14.227Z,20.39
2023-07-19T18:29:41.819Z,20.27
2023-07-19T18:32:09.735Z,20.31
2023-07-19T18:34:37.485Z,20.23
2023-07-19T18:37:05.497Z,20.24
2023-07-19T18:39:33.272Z,20.16
2023-07-19T18:42:03.817Z,20.22
2023-07-19T18:44:34.319Z,20.19
2023-07-19T18:47:04.088Z,20.09
2023-07-19T18:49:31.736Z,20.05
2023-07-19T18:52:00.345Z,20.19
2023-07-19T18:54:31.301Z,19.94
2023-07-19T18:56:59.219Z,19.89
2023-07-19T18:59:27.143Z,19.95
2023-07-19T19:01:54.849Z,19.95
2023-07-19T19:04:22.655Z,19.94
2023-07-19T19:06:50.218Z,19.83
2023-07-19T19:09:18.099Z,19.81
2023-07-19T19:11:45.746Z,19.93
2023-07-19T19:14:13.507Z,20.17
2023-07-19T19:16:41.266Z,20.26
2023-07-19T19:19:11.281Z,20.20
2023-07-19T19:21:38.997Z,20.22
2023-07-19T19:24:09.399Z,20.26
2023-07-19T19:26:38.053Z,20.49
2023-07-19T19:29:05.936Z,20.51
2023-07-19T19:31:34.510Z,20.52
2023-07-19T19:34:02.208Z,20.60
2023-07-19T19:36:29.847Z,20.58
2023-07-19T19:38:57.686Z,20.56
2023-07-19T19:41:25.528Z,20.57
2023-07-19T19:43:53.264Z,20.49
2023-07-19T19:46:20.932Z,20.44
2023-07-19T19:48:48.672Z,20.39
2023-07-19T19:51:16.437Z,20.41
2023-07-19T19:53:43.987Z,20.29
2023-07-19T19:58:43.958Z,20.29
2023-07-19T20:01:11.490Z,20.20
2023-07-19T20:03:39.347Z,20.23
2023-07-19T20:06:07.048Z,20.24
2023-07-19T20:08:34.772Z,20.20
2023-07-19T20:11:02.364Z,20.26
2023-07-19T20:13:30.053Z,20.26
2023-07-19T20:16:00.986Z,20.20
2023-07-19T20:21:00.351Z,20.25
2023-07-19T20:23:28.218Z,20.27
2023-07-19T20:26:12.826Z,20.26
2023-07-19T20:28:42.565Z,20.33
2023-07-19T20:31:10.259Z,20.32
2023-07-19T20:33:41.986Z,20.29
2023-07-19T20:36:45.762Z,20.29
2023-07-19T20:38:59.459Z,20.30
2023-07-19T20:43:57.864Z,20.32
2023-07-19T20:46:25.689Z,20.30
2023-07-19T20:48:57.422Z,20.32
2023-07-19T20:51:33.015Z,20.39
2023-07-19T20:54:01.883Z,20.36
2023-07-19T20:56:29.519Z,20.34
2023-07-19T20:58:57.148Z,20.33
2023-07-19T21:01:25.181Z,20.25
2023-07-19T21:03:53.233Z,20.34
2023-07-19T21:06:20.818Z,20.32
2023-07-19T21:08:49.219Z,20.30
2023-07-19T21:11:16.870Z,20.29
2023-07-19T21:13:44.495Z,20.27
2023-07-19T21:16:12.106Z,20.24
2023-07-19T21:18:39.851Z,20.30
2023-07-19T21:21:07.524Z,20.29
2023-07-19T21:23:35.453Z,20.28
2023-07-19T21:26:03.064Z,20.26
2023-07-19T21:28:30.800Z,20.26
2023-07-19T21:30:58.696Z,20.26
2023-07-19T21:33:26.388Z,20.20
2023-07-19T21:35:54.630Z,20.20
2023-07-19T21:38:23.390Z,20.19
2023-07-19T21:40:51.293Z,20.15
2023-07-19T21:43:18.852Z,20.13
2023-07-19T21:45:46.558Z,20.14
2023-07-19T21:48:14.366Z,20.15
2023-07-19T21:50:48.579Z,20.12
2023-07-19T21:53:17.484Z,20.10
2023-07-19T21:55:45.964Z,20.09
2023-07-19T21:58:13.653Z,20.02
2023-07-19T22:00:43.031Z,20.05
2023-07-19T22:03:14.003Z,20.05
2023-07-19T22:05:42.814Z,20.05
2023-07-19T22:08:11.123Z,19.99
2023-07-19T22:10:38.889Z,19.93
2023-07-19T22:13:09.601Z,19.94
2023-07-19T22:15:37.240Z,19.85
2023-07-19T22:18:25.875Z,20.11
2023-07-19T22:21:01.033Z,19.90
2023-07-19T22:23:35.326Z,19.87
2023-07-19T22:26:03.076Z,19.84
2023-07-19T22:28:30.734Z,19.89
2023-07-19T22:30:58.696Z,19.91
2023-07-19T22:33:26.517Z,19.92
2023-07-19T22:35:54.164Z,19.91
2023-07-19T22:38:21.865Z,19.84
2023-07-19T22:40:49.546Z,19.83
2023-07-19T22:43:17.181Z,19.79
2023-07-19T22:45:44.812Z,19.76
2023-07-19T22:48:12.629Z,19.77
2023-07-19T22:50:40.673Z,19.72
2023-07-19T22:53:08.497Z,19.71
2023-07-19T22:55:36.040Z,19.69
2023-07-19T22:58:03.681Z,19.67
2023-07-19T23:00:31.988Z,19.68
2023-07-19T23:02:59.735Z,19.65
2023-07-19T23:05:27.586Z,19.69
2023-07-19T23:07:55.484Z,19.63
2023-07-19T23:10:24.536Z,19.63
2023-07-19T23:12:53.584Z,19.65
2023-07-19T23:15:21.531Z,19.65
2023-07-19T23:17:49.393Z,19.61
2023-07-19T23:20:17.111Z,19.63
2023-07-19T23:22:44.926Z,19.61
2023-07-19T23:25:14.455Z,19.63
2023-07-19T23:27:43.063Z,19.64
2023-07-19T23:30:11.545Z,19.64
2023-07-19T23:32:39.196Z,19.66
2023-07-19T23:35:10.305Z,19.64
2023-07-19T23:37:37.923Z,19.65
2023-07-19T23:40:08.259Z,19.69
2023-07-19T23:42:35.878Z,19.66
2023-07-19T23:45:03.708Z,19.63
2023-07-19T23:47:33.048Z,19.68
2023-07-19T23:50:00.723Z,19.72
2023-07-19T23:52:28.470Z,19.67
2023-07-19T23:54:56.033Z,19.67
2023-07-19T23:57:23.814Z,19.63
2023-07-19T23:59:51.521Z,19.62
